Ellenburg Depot, New York
Current Conditions -  °F | °C
As of 3:53 PM on Friday 19 Dec 2014 (Local Time) from KPBG Reporting Station
Few Clouds Few Clouds  
Wind Chill: -9°   Ceiling: Unl
Heat Index: -4°   Visibility: 10mi
Dew Point: -8°   Wind: 9mph
Humidity: 72%   Direction: 20°NNE
Pressure: 30.12"   Gusts: NA
Location:  44.91°N, 73.8°W
Report Text: KPBG 192053Z AUTO 02008KT 10SM FEW028 M04/M08 A3012 RMK AO2 SLP204 T10391083 51014
Loading
Personal Weather Stations






























Interactive Weather Map New forecast layout! Learn more

10-Day Weather Forecast

Advertisements
Track Severe Weather on mobile